Flight Track Log - Related Links

Times and Time Zones

All times are in EDT time to prevent confusion due to time zone crossing. See the EJA941 flight status page for this flight to view local times or setup timezone preferences in your user account.

Time Position Orientation Groundspeed Altitude Reporting Facility
EDT Latitude Longitude Course Direction KTS MPH feet Rate Location/Type
Fri 02:37:16 PM 44.4853 -73.3042 187° South 234 269 10,100  Level Boston Center
Fri 02:38:16 PM 44.4014 -73.3611 206° Southwest 264 304 12,000 1,000 Climbing Boston Center
Fri 02:39:16 PM 44.2950 -73.3625 181° South 351 404 12,100  Climbing Boston Center
Fri 02:40:16 PM 44.1889 -73.3608 179° South 387 445 12,000 -50 Descending Boston Center
Fri 02:41:00 PM 43.8621 -73.2167 180° South  Level FlightAware Approximate
Fri 02:41:16 PM 44.0783 -73.3592 179° South 400 460 12,000  Level Boston Center
Fri 02:42:00 PM 43.7615 -73.2315 187° South  Level FlightAware Approximate
Fri 02:42:16 PM 43.9681 -73.3603 180° South 400 460 12,100  Level Boston Center
Fri 02:43:16 PM 43.8575 -73.3586 179° South 400 460 12,100  Level Boston Center
Fri 02:44:16 PM 43.7431 -73.3569 179° South 405 466 12,100 -50 Level Boston Center
Fri 02:45:16 PM 43.6431 -73.3525 178° South 405 466 12,000 -738 Descending Boston Center
Fri 02:46:26 PM 43.5033 -73.3531 180° South 401 461 10,500 -1,213 Descending Boston Center
Fri 02:46:50 PM 43.4617 -73.3525 179° South 391 450 10,100 -600 Descending Boston Center
Fri 02:47:16 PM 43.4283 -73.3492 176° South 400 460 10,000 -98 Descending Boston Center
Fri 02:47:51 PM 43.3597 -73.3511 181° South 368 423 10,000  Level Boston Center
Fri 02:48:16 PM 43.3264 -73.3478 176° South 374 430 10,000 98 Level Boston Center
Fri 02:48:52 PM 43.2594 -73.3494 181° South 328 377 10,100 -100 Climbing Boston Center
Fri 02:49:16 PM 43.2261 -73.3519 183° South 338 389 9,900 -590 Descending Boston Center
Fri 02:49:53 PM 43.1800 -73.3825 206° Southwest 285 328 9,500 -1,000 Descending Boston Center
Fri 02:50:16 PM 43.1633 -73.3994 217° Southwest 296 341 8,900 -1,672 Descending Boston Center
Fri 02:50:54 PM 43.1192 -73.4442 216° Southwest 261 300 7,800 -1,800 Descending Boston Center
Fri 02:51:16 PM 43.0961 -73.4636 212° Southwest 283 326 7,100 -1,869 Descending Boston Center
Fri 02:51:55 PM 43.0603 -73.5028 219° Southwest 262 302 5,900 -1,700 Descending Boston Center
Fri 02:52:16 PM 43.0433 -73.5167 211° Southwest 267 307 5,400 -1,800 Descending Boston Center
Fri 02:52:55 PM 43.0014 -73.5586 216° Southwest 258 297 4,100 -1,900 Descending Boston Center
Fri 02:53:16 PM 42.9783 -73.5781 212° Southwest 267 307 3,500 -984 Descending Boston Center
Fri 02:53:56 PM 42.9425 -73.6172 219° Southwest 255 293 3,100 -400 Descending Boston Center
Fri 02:54:16 PM 42.9278 -73.6281 208° Southwest 267 307 3,100 -150 Level Boston Center
Fri 02:55:16 PM 42.8669 -73.6722 208° Southwest 250 288 2,900 -706 Descending Boston Center
Fri 02:55:58 PM 42.8269 -73.6914 199° South 206 237 1,900 -1,000 Descending Boston Center
Fri 02:56:16 PM 42.8167 -73.6939 190° South 222 255 1,900 -98 Level Boston Center
Fri 02:56:59 PM 42.7767 -73.7158 202° Southwest 191 220 1,800 -100 Descending Boston Center
Fri 02:57:16 PM 42.7600 -73.7239 200° South 205 236 1,800 -900 Level Boston Center
Fri 02:57:59 PM 42.7492 -73.7575 246° West 127 146 900 -500 Descending Boston Center
Fri 02:58:16 PM 42.7183 -73.7144 134° Southeast 187 215 1,300 7,091 Climbing Boston Center
Fri 02:59:16 PM 42.6683 -73.7247 189° South 147 169 10,000 4,350 Climbing Boston Center
Fri 03:00:16 PM 42.6264 -73.7381 193° South 147 169 10,000  Level Boston Center
Fri 03:01:16 PM 42.5847 -73.7514 193° South 147 169 10,000  Level Boston Center

Login

Don't have an account? Register now (free) for customized features, flight alerts, and more!